createdAt,value
2023-04-25T00:04:54.799Z,177.33333
2023-04-25T00:09:56.555Z,168.81752
2023-04-25T00:16:03.420Z,166.38267
2023-04-25T00:21:05.203Z,161.66784
2023-04-25T00:26:07.019Z,161.66784
2023-04-25T00:31:08.788Z,163.21708
2023-04-25T00:36:10.453Z,165.58273
2023-04-25T00:41:12.124Z,175.57895
2023-04-25T00:46:13.817Z,177.33333
2023-04-25T00:51:15.628Z,180.01533
2023-04-25T00:56:17.344Z,173.85075
2023-04-25T01:01:19.074Z,174.71161
2023-04-25T01:06:21.481Z,174.71161
2023-04-25T01:11:24.123Z,172.99628
2023-04-25T01:16:25.805Z,163.21708
2023-04-25T01:21:27.540Z,156.41379
2023-04-25T01:26:29.102Z,157.14879
2023-04-25T01:31:30.753Z,160.14035
2023-04-25T01:36:32.157Z,159.38462
2023-04-25T01:41:33.531Z,164.78853
2023-04-25T01:46:35.087Z,168.81752
2023-04-25T01:51:36.820Z,167.18841
2023-04-25T01:56:38.175Z,159.38462
2023-04-25T02:01:39.632Z,155.68385
2023-04-25T02:06:40.969Z,157.14879
2023-04-25T02:11:42.231Z,154.9589
2023-04-25T02:16:43.717Z,155.68385
2023-04-25T02:21:45.427Z,152.81356
2023-04-25T02:26:49.011Z,147.30033
2023-04-25T02:31:51.135Z,146.63158
2023-04-25T02:36:52.823Z,147.30033
2023-04-25T02:41:54.274Z,142.70968
2023-04-25T02:46:55.704Z,140.17834
2023-04-25T02:51:57.425Z,138.93671
2023-04-25T02:56:58.927Z,132.3792
2023-04-25T03:02:08.254Z,132.3792
2023-04-25T03:07:09.649Z,132.3792
2023-04-25T03:12:11.129Z,132.95706
2023-04-25T03:17:12.506Z,132.95706
2023-04-25T03:22:13.805Z,132.95706
2023-04-25T03:27:15.123Z,127.8806
2023-04-25T03:32:16.530Z,127.33333
2023-04-25T03:37:18.006Z,118.0113
2023-04-25T03:42:19.380Z,119.49858
2023-04-25T03:47:20.685Z,117.03371
2023-04-25T03:52:22.166Z,118.0113
2023-04-25T03:57:23.479Z,117.52113
2023-04-25T04:02:25.029Z,114.63712
2023-04-25T04:07:26.710Z,117.52113
2023-04-25T04:12:28.297Z,117.52113
2023-04-25T04:17:29.968Z,111.3913
2023-04-25T04:22:31.666Z,104
2023-04-25T04:27:33.333Z,100.743
2023-04-25T04:32:34.718Z,101.54476
2023-04-25T04:37:36.119Z,101.94872
2023-04-25T04:42:37.600Z,96.47525
2023-04-25T04:47:39.117Z,93.87835
2023-04-25T04:52:40.529Z,93.15254
2023-04-25T04:57:42.019Z,92.43373
2023-04-25T05:02:43.550Z,92.43373
2023-04-25T05:07:44.998Z,92.07692
2023-04-25T05:12:46.672Z,89.62648
2023-04-25T05:17:48.204Z,88.94118
2023-04-25T05:22:49.548Z,87.92523
2023-04-25T05:27:50.880Z,92.79227
2023-04-25T05:32:52.227Z,93.15254
2023-04-25T05:37:54.240Z,92.43373
2023-04-25T05:42:55.692Z,93.15254
2023-04-25T05:47:57.238Z,92.79227
2023-04-25T05:52:58.818Z,93.87835
2023-04-25T05:58:00.285Z,95.72414
2023-04-25T06:03:02.741Z,101.14286
2023-04-25T06:08:04.228Z,101.14286
2023-04-25T06:13:05.549Z,104.83551
2023-04-25T06:18:06.988Z,105.67979
2023-04-25T06:23:08.606Z,111.84741
2023-04-25T06:28:10.306Z,116.54902
2023-04-25T06:33:12.315Z,120.5043
2023-04-25T06:38:13.818Z,121.52161
2023-04-25T06:43:15.109Z,120.5043
2023-04-25T06:48:16.331Z,145.96721
2023-04-25T06:53:17.804Z,143.35275
2023-04-25T06:58:19.103Z,152.81356
2023-04-25T07:03:21.354Z,157.14879
2023-04-25T07:08:23.022Z,141.4359
2023-04-25T07:13:24.542Z,143.35275
2023-04-25T07:18:26.121Z,152.10811
2023-04-25T07:23:27.492Z,151.40741
2023-04-25T07:28:29.076Z,144.65147
2023-04-25T07:33:30.729Z,159.38462
2023-04-25T07:38:32.048Z,144.65147
2023-04-25T07:43:33.476Z,147.30033
2023-04-25T07:48:34.993Z,141.4359
2023-04-25T07:53:36.445Z,142.70968
2023-04-25T07:58:37.907Z,145.30719
2023-04-25T08:03:40.428Z,137.10345
2023-04-25T08:08:41.750Z,145.30719
2023-04-25T08:13:43.045Z,144
2023-04-25T08:18:44.355Z,154.23891
2023-04-25T08:23:45.518Z,148.65116
2023-04-25T08:28:47.245Z,166.38267
2023-04-25T08:33:48.772Z,163.21708
2023-04-25T08:38:50.662Z,173.85075
2023-04-25T08:43:53.039Z,168
2023-04-25T08:53:57.955Z,160.14035
2023-04-25T08:59:37.245Z,137.10345
2023-04-25T09:04:40.149Z,122.55072
2023-04-25T09:09:41.506Z,144.65147
2023-04-25T09:14:42.855Z,193.39271
2023-04-25T09:19:44.151Z,203.91561
2023-04-25T09:24:45.667Z,214.17544
2023-04-25T09:29:47.268Z,211.82609
2023-04-25T09:34:48.885Z,229.18519
2023-04-25T09:39:50.297Z,210.66667
2023-04-25T09:44:51.953Z,217.77778
2023-04-25T09:49:53.602Z,240.15385
2023-04-25T09:54:55.461Z,268.21053
2023-04-25T09:59:57.173Z,238.73684
2023-04-25T10:04:58.957Z,234.56604
2023-04-25T10:10:00.605Z,224
2023-04-25T10:15:02.214Z,217.77778
2023-04-25T10:20:03.840Z,248.9505
2023-04-25T10:25:05.541Z,0
2023-04-25T10:30:07.230Z,0
2023-04-25T10:35:08.899Z,276.97297
2023-04-25T10:40:10.498Z,0
2023-04-25T10:45:12.045Z,0
2023-04-25T10:50:13.707Z,0
2023-04-25T10:55:15.337Z,0
2023-04-25T11:00:16.820Z,0
2023-04-25T11:05:20.928Z,0
2023-04-25T11:10:22.848Z,0
2023-04-25T11:15:24.301Z,0
2023-04-25T11:20:25.652Z,0
2023-04-25T11:25:26.991Z,0
2023-04-25T11:30:28.509Z,0
2023-04-25T11:35:29.892Z,0
2023-04-25T11:40:31.397Z,0
2023-04-25T11:45:33.123Z,0
2023-04-25T11:50:34.430Z,0
2023-04-25T11:55:35.965Z,0
2023-04-25T12:00:37.541Z,227.87097
2023-04-25T12:05:39.414Z,241.58454
2023-04-25T12:10:41.073Z,216.56637
2023-04-25T12:15:42.418Z,0
2023-04-25T12:20:43.805Z,230.51163
2023-04-25T12:25:45.241Z,0
2023-04-25T12:30:46.574Z,0
2023-04-25T12:35:47.862Z,0
2023-04-25T12:40:49.439Z,201.74059
2023-04-25T12:45:51.020Z,252
2023-04-25T12:50:52.364Z,235.94313
2023-04-25T13:00:55.146Z,225.27854
2023-04-25T13:05:56.500Z,0
2023-04-25T13:10:57.998Z,0
2023-04-25T13:15:59.399Z,0
2023-04-25T13:21:00.794Z,0
2023-04-25T13:26:02.096Z,0
2023-04-25T13:31:03.400Z,0
2023-04-25T13:36:04.834Z,0
2023-04-25T13:41:06.318Z,0
2023-04-25T13:46:07.761Z,0
2023-04-25T13:51:09.378Z,0
2023-04-25T13:56:10.864Z,0
2023-04-25T14:01:12.473Z,0
2023-04-25T14:06:14.167Z,0
2023-04-25T14:11:15.805Z,226.56881
2023-04-25T14:16:17.178Z,0
2023-04-25T14:21:18.731Z,216.56637
2023-04-25T14:26:20.377Z,225.27854
2023-04-25T14:31:22.084Z,0
2023-04-25T14:36:23.675Z,201.74059
2023-04-25T14:41:25.196Z,202.82353
2023-04-25T14:46:26.848Z,0
2023-04-25T14:51:28.358Z,206.12766
2023-04-25T14:56:30.089Z,191.38956
2023-04-25T15:01:31.878Z,194.4065
2023-04-25T15:06:33.173Z,185.56863
2023-04-25T15:11:34.576Z,157.14879
2023-04-25T15:16:36.148Z,152.81356
2023-04-25T15:21:37.705Z,142.70968
2023-04-25T15:26:39.109Z,123.06977
2023-04-25T15:31:40.514Z,138.32177
2023-04-25T15:36:41.926Z,143.35275
2023-04-25T15:41:43.324Z,144.65147
2023-04-25T15:46:44.783Z,148.65116
2023-04-25T15:51:46.658Z,157.88889
2023-04-25T15:56:48.239Z,178.22053
2023-04-25T16:01:49.804Z,193.39271
2023-04-25T16:06:51.317Z,182.75969
2023-04-25T16:11:52.800Z,172.99628
2023-04-25T16:16:54.142Z,160.14035
2023-04-25T16:21:55.549Z,150.71141
2023-04-25T16:26:57.256Z,137.10345
2023-04-25T16:31:58.794Z,134.71207
2023-04-25T16:37:00.433Z,145.30719
2023-04-25T16:42:04.557Z,118.50425
2023-04-25T16:47:06.651Z,127.8806
2023-04-25T16:52:08.369Z,118.50425
2023-04-25T16:57:09.959Z,112.76712
2023-04-25T17:02:11.671Z,126.78932
2023-04-25T17:07:13.602Z,122.55072
2023-04-25T17:12:15.646Z,104.41667
2023-04-25T17:17:17.449Z,104.41667
2023-04-25T17:22:18.969Z,105.25654
2023-04-25T17:27:20.633Z,99.94937
2023-04-25T17:32:22.618Z,96.09877
2023-04-25T17:37:24.578Z,91.72182
2023-04-25T17:42:26.473Z,93.51456
2023-04-25T17:47:28.329Z,93.51456
2023-04-25T17:52:30.254Z,94.98039
2023-04-25T17:57:32.282Z,97.61596
2023-04-25T18:02:34.371Z,97.61596
2023-04-25T18:07:36.539Z,99.55556
2023-04-25T18:12:38.635Z,99.16373
2023-04-25T18:17:40.623Z,98.38596
2023-04-25T18:22:42.642Z,96.09877
2023-04-25T18:27:44.689Z,99.55556
2023-04-25T18:32:47.109Z,96.09877
2023-04-25T18:37:49.837Z,93.51456
2023-04-25T18:42:52.198Z,91.01671
2023-04-25T18:47:54.920Z,91.36842
2023-04-25T18:52:58.018Z,90.66667
2023-04-25T18:58:01.354Z,93.51456
2023-04-25T19:03:04.394Z,89.97156
2023-04-25T19:08:07.488Z,87.92523
2023-04-25T19:13:10.258Z,86.26328
2023-04-25T19:18:12.780Z,86.59259
2023-04-25T19:23:15.346Z,88.2623
2023-04-25T19:28:17.986Z,88.60094
2023-04-25T19:33:20.339Z,88.2623
2023-04-25T19:38:23.101Z,87.25581
2023-04-25T19:43:25.307Z,88.60094
2023-04-25T19:48:27.660Z,89.97156
2023-04-25T19:53:30.225Z,91.72182
2023-04-25T19:58:32.741Z,92.79227
2023-04-25T20:03:35.530Z,89.62648
2023-04-25T20:08:37.441Z,89.62648
2023-04-25T20:13:39.192Z,88.94118
2023-04-25T20:18:40.898Z,89.97156
2023-04-25T20:23:42.650Z,87.25581
2023-04-25T20:28:44.516Z,85.93548
2023-04-25T20:33:46.406Z,86.26328
2023-04-25T20:38:47.997Z,87.25581
2023-04-25T20:43:49.911Z,87.92523
2023-04-25T20:48:51.896Z,88.2623
2023-04-25T20:53:53.826Z,85.6092
2023-04-25T20:58:55.498Z,84.31891
2023-04-25T21:03:59.304Z,84.63927
2023-04-25T21:09:01.711Z,87.92523
2023-04-25T21:14:03.228Z,96.47525
2023-04-25T21:19:04.751Z,98.38596
2023-04-25T21:24:06.134Z,93.15254
2023-04-25T21:29:07.728Z,94.2439
2023-04-25T21:34:09.220Z,99.94937
2023-04-25T21:39:10.497Z,105.67979
2023-04-25T21:44:11.985Z,103.17313
2023-04-25T21:49:13.917Z,103.58549
2023-04-25T21:54:16.552Z,101.14286
2023-04-25T21:59:18.092Z,99.16373
2023-04-25T22:04:19.561Z,102.76289
2023-04-25T22:09:21.304Z,103.17313
2023-04-25T22:14:22.998Z,105.25654
2023-04-25T22:19:24.448Z,100.743
2023-04-25T22:24:25.769Z,104.41667
2023-04-25T22:29:27.265Z,107.39523
2023-04-25T22:34:28.584Z,106.10526
2023-04-25T22:39:29.952Z,105.67979
2023-04-25T22:44:31.423Z,111.3913
2023-04-25T22:49:32.727Z,108.26667
2023-04-25T22:54:34.305Z,109.14745
2023-04-25T22:59:35.707Z,106.53298
2023-04-25T23:04:37.055Z,105.25654
2023-04-25T23:09:38.466Z,103.17313
2023-04-25T23:14:40.504Z,106.96296
2023-04-25T23:19:41.802Z,108.70588
2023-04-25T23:24:43.283Z,105.25654
2023-04-25T23:29:44.946Z,104.83551
2023-04-25T23:34:46.321Z,101.14286
2023-04-25T23:39:48.020Z,102.35476
2023-04-25T23:44:49.581Z,99.16373
2023-04-25T23:49:51.145Z,101.94872
2023-04-25T23:54:52.695Z,101.54476
2023-04-25T23:59:54.347Z,99.55556
